Terminal Aerodrome Forecast
Issued by NWS

Home | Current Version | Previous Version | Text Only | Print | Product List | Glossary On
Versions: 1 2 3 4 5 6 7 8 9 10 11 12 13 14 15 16 17 18 19 20 21 22 23 24 25 26
483
FTUS41 KOKX 121433 AAA
TAFTEB
TAF AMD
KTEB 121433Z 1215/1312 23009KT P6SM SCT150 BKN250
     FM122300 23005KT P6SM BKN050
     FM130500 24006KT P6SM SCT025 BKN040 PROB30 1305/1309 2SM -SHSN
      BKN025
     FM130900 29014G22KT P6SM SCT050 BKN100 PROB30 1309/1311 4SM
      -SHSN SCT025 BKN040=

USA.gov is the U.S. government's official web portal to all federal, state and local government web resources and services.